sensor_id;sensor_type;location;lat;lon;timestamp;pressure;altitude;pressure_sealevel;temperature;humidity
55070;BME280;40967;52.070;8.596;2023-05-10T00:00:11;99626.41;;;15.54;93.98
55070;BME280;40967;52.070;8.596;2023-05-10T00:02:37;99627.38;;;15.58;93.88
55070;BME280;40967;52.070;8.596;2023-05-10T00:05:03;99619.94;;;15.59;93.77
55070;BME280;40967;52.070;8.596;2023-05-10T00:07:28;99618.84;;;15.60;93.37
55070;BME280;40967;52.070;8.596;2023-05-10T00:09:54;99615.44;;;15.63;93.15
55070;BME280;40967;52.070;8.596;2023-05-10T00:12:19;99619.00;;;15.63;93.04
55070;BME280;40967;52.070;8.596;2023-05-10T00:14:44;99615.94;;;15.65;92.77
55070;BME280;40967;52.070;8.596;2023-05-10T00:17:10;99617.84;;;15.64;93.09
55070;BME280;40967;52.070;8.596;2023-05-10T00:19:35;99617.53;;;15.66;93.20
55070;BME280;40967;52.070;8.596;2023-05-10T00:22:01;99613.97;;;15.65;92.88
55070;BME280;40967;52.070;8.596;2023-05-10T00:24:26;99617.03;;;15.64;92.78
55070;BME280;40967;52.070;8.596;2023-05-10T00:26:52;99612.72;;;15.63;92.87
55070;BME280;40967;52.070;8.596;2023-05-10T00:29:17;99613.53;;;15.63;92.89
55070;BME280;40967;52.070;8.596;2023-05-10T00:31:42;99606.44;;;15.62;93.00
55070;BME280;40967;52.070;8.596;2023-05-10T00:34:08;99606.75;;;15.61;93.00
55070;BME280;40967;52.070;8.596;2023-05-10T00:36:33;99600.47;;;15.60;93.16
55070;BME280;40967;52.070;8.596;2023-05-10T00:38:58;99602.09;;;15.61;93.31
55070;BME280;40967;52.070;8.596;2023-05-10T00:41:24;99600.97;;;15.62;93.74
55070;BME280;40967;52.070;8.596;2023-05-10T00:43:49;99585.53;;;15.58;93.64
55070;BME280;40967;52.070;8.596;2023-05-10T00:46:15;99587.47;;;15.57;93.78
55070;BME280;40967;52.070;8.596;2023-05-10T00:48:41;99589.53;;;15.60;94.10
55070;BME280;40967;52.070;8.596;2023-05-10T00:51:07;99589.38;;;15.57;94.25
55070;BME280;40967;52.070;8.596;2023-05-10T00:53:34;99595.34;;;15.59;94.45
55070;BME280;40967;52.070;8.596;2023-05-10T00:55:59;99594.06;;;15.56;94.74
55070;BME280;40967;52.070;8.596;2023-05-10T00:58:25;99589.38;;;15.57;94.50
55070;BME280;40967;52.070;8.596;2023-05-10T01:00:54;99595.84;;;15.52;95.33
55070;BME280;40967;52.070;8.596;2023-05-10T01:03:21;99598.09;;;15.50;95.37
55070;BME280;40967;52.070;8.596;2023-05-10T01:05:46;99586.66;;;15.48;95.16
55070;BME280;40967;52.070;8.596;2023-05-10T01:08:12;99589.41;;;15.48;95.08
55070;BME280;40967;52.070;8.596;2023-05-10T01:10:38;99591.03;;;15.49;94.93
55070;BME280;40967;52.070;8.596;2023-05-10T01:13:03;99585.06;;;15.47;94.70
55070;BME280;40967;52.070;8.596;2023-05-10T01:15:29;99589.41;;;15.48;94.95
55070;BME280;40967;52.070;8.596;2023-05-10T01:17:56;99585.06;;;15.47;94.87
55070;BME280;40967;52.070;8.596;2023-05-10T01:20:22;99593.28;;;15.47;94.89
55070;BME280;40967;52.070;8.596;2023-05-10T01:33:35;99597.44;;;15.36;96.96
55070;BME280;40967;52.070;8.596;2023-05-10T01:36:26;99595.50;;;15.28;98.50
55070;BME280;40967;52.070;8.596;2023-05-10T01:39:05;99589.72;;;15.21;99.77
55070;BME280;40967;52.070;8.596;2023-05-10T01:42:03;99596.31;;;15.12;100.00
55070;BME280;40967;52.070;8.596;2023-05-10T01:44:38;99595.03;;;15.09;100.00
55070;BME280;40967;52.070;8.596;2023-05-10T01:47:12;99595.84;;;15.10;100.00
55070;BME280;40967;52.070;8.596;2023-05-10T01:49:43;99593.75;;;15.07;100.00
55070;BME280;40967;52.070;8.596;2023-05-10T01:52:14;99584.44;;;14.99;100.00
55070;BME280;40967;52.070;8.596;2023-05-10T01:54:49;99583.94;;;14.97;100.00
55070;BME280;40967;52.070;8.596;2023-05-10T01:57:16;99578.16;;;14.90;100.00
55070;BME280;40967;52.070;8.596;2023-05-10T01:59:43;99576.84;;;14.88;100.00
55070;BME280;40967;52.070;8.596;2023-05-10T02:02:11;99574.78;;;14.85;100.00
55070;BME280;40967;52.070;8.596;2023-05-10T02:04:39;99582.00;;;14.89;100.00
55070;BME280;40967;52.070;8.596;2023-05-10T02:07:06;99587.78;;;14.88;100.00
55070;BME280;40967;52.070;8.596;2023-05-10T02:09:33;99589.41;;;14.80;100.00
55070;BME280;40967;52.070;8.596;2023-05-10T02:12:03;99585.19;;;14.74;100.00
55070;BME280;40967;52.070;8.596;2023-05-10T02:14:32;99590.19;;;14.72;100.00
55070;BME280;40967;52.070;8.596;2023-05-10T02:16:59;99591.00;;;14.72;100.00
55070;BME280;40967;52.070;8.596;2023-05-10T02:19:28;99599.50;;;14.71;100.00
55070;BME280;40967;52.070;8.596;2023-05-10T02:21:55;99599.34;;;14.67;100.00
55070;BME280;40967;52.070;8.596;2023-05-10T02:24:23;99601.91;;;14.64;100.00
55070;BME280;40967;52.070;8.596;2023-05-10T02:26:51;99612.66;;;14.60;100.00
55070;BME280;40967;52.070;8.596;2023-05-10T02:29:18;99605.72;;;14.54;100.00
55070;BME280;40967;52.070;8.596;2023-05-10T02:31:45;99602.97;;;14.54;100.00
55070;BME280;40967;52.070;8.596;2023-05-10T02:34:11;99601.72;;;14.52;100.00
55070;BME280;40967;52.070;8.596;2023-05-10T02:36:38;99600.22;;;14.46;100.00
55070;BME280;40967;52.070;8.596;2023-05-10T02:39:04;99596.84;;;14.40;100.00
55070;BME280;40967;52.070;8.596;2023-05-10T02:41:35;99597.31;;;14.34;100.00
55070;BME280;40967;52.070;8.596;2023-05-10T02:44:02;99594.22;;;14.27;100.00
55070;BME280;40967;52.070;8.596;2023-05-10T02:46:29;99603.22;;;14.27;100.00
55070;BME280;40967;52.070;8.596;2023-05-10T02:48:55;99598.09;;;14.26;100.00
55070;BME280;40967;52.070;8.596;2023-05-10T02:51:24;99596.63;;;14.28;100.00
55070;BME280;40967;52.070;8.596;2023-05-10T02:53:53;99595.53;;;14.29;100.00
55070;BME280;40967;52.070;8.596;2023-05-10T02:56:25;99602.09;;;14.28;100.00
55070;BME280;40967;52.070;8.596;2023-05-10T02:58:53;99596.19;;;14.26;100.00
55070;BME280;40967;52.070;8.596;2023-05-10T03:01:20;99589.38;;;14.24;100.00
55070;BME280;40967;52.070;8.596;2023-05-10T03:03:45;99593.44;;;14.26;100.00
55070;BME280;40967;52.070;8.596;2023-05-10T03:06:11;99588.16;;;14.30;100.00
55070;BME280;40967;52.070;8.596;2023-05-10T03:08:36;99597.13;;;14.30;100.00
55070;BME280;40967;52.070;8.596;2023-05-10T03:13:47;99601.44;;;14.23;100.00
55070;BME280;40967;52.070;8.596;2023-05-10T03:16:16;99599.81;;;14.22;100.00
55070;BME280;40967;52.070;8.596;2023-05-10T03:18:55;99604.94;;;14.23;100.00
55070;BME280;40967;52.070;8.596;2023-05-10T03:21:25;99605.75;;;14.24;100.00
55070;BME280;40967;52.070;8.596;2023-05-10T03:23:59;99601.72;;;14.21;100.00
55070;BME280;40967;52.070;8.596;2023-05-10T03:26:31;99606.72;;;14.19;100.00
55070;BME280;40967;52.070;8.596;2023-05-10T03:28:57;99609.44;;;14.19;100.00
55070;BME280;40967;52.070;8.596;2023-05-10T03:31:24;99611.53;;;14.22;100.00
55070;BME280;40967;52.070;8.596;2023-05-10T03:33:51;99604.63;;;14.25;100.00
55070;BME280;40967;52.070;8.596;2023-05-10T03:36:17;99609.28;;;14.24;100.00
55070;BME280;40967;52.070;8.596;2023-05-10T03:38:43;99610.22;;;14.20;100.00
55070;BME280;40967;52.070;8.596;2023-05-10T03:41:08;99605.41;;;14.17;100.00
55070;BME280;40967;52.070;8.596;2023-05-10T03:43:33;99605.22;;;14.13;100.00
55070;BME280;40967;52.070;8.596;2023-05-10T03:46:02;99614.22;;;14.14;100.00
55070;BME280;40967;52.070;8.596;2023-05-10T03:48:27;99614.22;;;14.14;100.00
55070;BME280;40967;52.070;8.596;2023-05-10T03:50:53;99614.22;;;14.14;100.00
55070;BME280;40967;52.070;8.596;2023-05-10T03:53:18;99612.91;;;14.11;100.00
55070;BME280;40967;52.070;8.596;2023-05-10T03:55:43;99611.66;;;14.09;100.00
55070;BME280;40967;52.070;8.596;2023-05-10T03:58:13;99620.44;;;14.06;100.00
55070;BME280;40967;52.070;8.596;2023-05-10T04:00:38;99614.78;;;14.02;100.00
55070;BME280;40967;52.070;8.596;2023-05-10T04:03:13;99619.59;;;13.97;100.00
55070;BME280;40967;52.070;8.596;2023-05-10T04:05:39;99622.63;;;13.95;100.00
55070;BME280;40967;52.070;8.596;2023-05-10T04:08:05;99623.56;;;13.91;100.00
55070;BME280;40967;52.070;8.596;2023-05-10T04:10:31;99624.69;;;13.90;100.00
55070;BME280;40967;52.070;8.596;2023-05-10T04:12:57;99631.56;;;13.87;100.00
55070;BME280;40967;52.070;8.596;2023-05-10T04:15:22;99623.38;;;13.87;100.00
55070;BME280;40967;52.070;8.596;2023-05-10T04:17:48;99628.97;;;13.82;100.00
55070;BME280;40967;52.070;8.596;2023-05-10T04:20:13;99629.94;;;13.78;100.00
55070;BME280;40967;52.070;8.596;2023-05-10T04:22:39;99638.09;;;13.78;100.00
55070;BME280;40967;52.070;8.596;2023-05-10T04:25:05;99633.06;;;13.71;100.00
55070;BME280;40967;52.070;8.596;2023-05-10T04:27:31;99640.47;;;13.71;100.00
55070;BME280;40967;52.070;8.596;2023-05-10T04:29:57;99645.41;;;13.68;100.00
55070;BME280;40967;52.070;8.596;2023-05-10T04:32:22;99651.31;;;13.62;100.00
55070;BME280;40967;52.070;8.596;2023-05-10T04:34:48;99652.78;;;13.46;100.00
55070;BME280;40967;52.070;8.596;2023-05-10T04:37:14;99661.09;;;13.41;100.00
55070;BME280;40967;52.070;8.596;2023-05-10T04:39:39;99669.78;;;13.29;100.00
55070;BME280;40967;52.070;8.596;2023-05-10T04:42:05;99662.34;;;13.21;100.00
55070;BME280;40967;52.070;8.596;2023-05-10T04:44:31;99666.59;;;13.14;100.00
55070;BME280;40967;52.070;8.596;2023-05-10T04:47:00;99672.06;;;13.14;100.00
55070;BME280;40967;52.070;8.596;2023-05-10T04:49:27;99669.94;;;13.11;100.00
55070;BME280;40967;52.070;8.596;2023-05-10T04:51:53;99675.50;;;13.06;100.00
55070;BME280;40967;52.070;8.596;2023-05-10T04:54:18;99682.75;;;12.97;100.00
55070;BME280;40967;52.070;8.596;2023-05-10T04:56:44;99688.72;;;12.99;100.00
55070;BME280;40967;52.070;8.596;2023-05-10T04:59:09;99682.94;;;13.00;100.00
55070;BME280;40967;52.070;8.596;2023-05-10T05:01:35;99692.16;;;13.04;100.00
55070;BME280;40967;52.070;8.596;2023-05-10T05:04:00;99688.31;;;13.05;100.00
55070;BME280;40967;52.070;8.596;2023-05-10T05:06:26;99693.16;;;13.08;100.00
55070;BME280;40967;52.070;8.596;2023-05-10T05:08:52;99697.00;;;13.07;100.00
55070;BME280;40967;52.070;8.596;2023-05-10T05:11:18;99692.56;;;13.11;100.00
55070;BME280;40967;52.070;8.596;2023-05-10T05:13:43;99690.72;;;13.07;100.00
55070;BME280;40967;52.070;8.596;2023-05-10T05:16:09;99708.41;;;13.09;100.00
55070;BME280;40967;52.070;8.596;2023-05-10T05:18:38;99712.22;;;13.08;100.00
55070;BME280;40967;52.070;8.596;2023-05-10T05:21:17;99714.47;;;13.06;100.00
55070;BME280;40967;52.070;8.596;2023-05-10T05:23:43;99701.75;;;13.02;100.00
55070;BME280;40967;52.070;8.596;2023-05-10T05:26:08;99709.00;;;13.06;100.00
55070;BME280;40967;52.070;8.596;2023-05-10T05:28:37;99715.56;;;13.05;100.00
55070;BME280;40967;52.070;8.596;2023-05-10T05:31:06;99719.91;;;13.06;100.00
55070;BME280;40967;52.070;8.596;2023-05-10T05:33:35;99722.13;;;13.04;100.00
55070;BME280;40967;52.070;8.596;2023-05-10T05:36:05;99723.09;;;13.08;100.00
55070;BME280;40967;52.070;8.596;2023-05-10T05:38:30;99730.56;;;13.16;100.00
55070;BME280;40967;52.070;8.596;2023-05-10T05:40:57;99734.91;;;13.17;100.00
55070;BME280;40967;52.070;8.596;2023-05-10T05:43:23;99737.44;;;13.14;100.00
55070;BME280;40967;52.070;8.596;2023-05-10T05:45:48;99746.53;;;13.09;100.00
55070;BME280;40967;52.070;8.596;2023-05-10T05:48:14;99742.66;;;13.10;100.00
55070;BME280;40967;52.070;8.596;2023-05-10T05:50:39;99749.75;;;13.11;100.00
55070;BME280;40967;52.070;8.596;2023-05-10T05:53:08;99744.88;;;13.08;100.00
55070;BME280;40967;52.070;8.596;2023-05-10T05:55:34;99761.06;;;13.05;100.00
55070;BME280;40967;52.070;8.596;2023-05-10T05:57:59;99748.91;;;12.97;100.00
55070;BME280;40967;52.070;8.596;2023-05-10T06:00:25;99762.66;;;12.92;100.00
55070;BME280;40967;52.070;8.596;2023-05-10T06:02:50;99766.66;;;12.95;100.00
55070;BME280;40967;52.070;8.596;2023-05-10T06:05:16;99768.50;;;12.99;100.00
55070;BME280;40967;52.070;8.596;2023-05-10T06:07:42;99765.25;;;12.97;100.00
55070;BME280;40967;52.070;8.596;2023-05-10T06:10:08;99778.19;;;13.05;100.00
55070;BME280;40967;52.070;8.596;2023-05-10T06:12:34;99780.59;;;13.07;100.00
55070;BME280;40967;52.070;8.596;2023-05-10T06:15:00;99776.06;;;13.02;100.00
55070;BME280;40967;52.070;8.596;2023-05-10T06:17:26;99782.84;;;13.05;100.00
55070;BME280;40967;52.070;8.596;2023-05-10T06:19:51;99793.91;;;13.08;100.00
55070;BME280;40967;52.070;8.596;2023-05-10T06:22:19;99792.50;;;13.11;100.00
55070;BME280;40967;52.070;8.596;2023-05-10T06:24:44;99786.25;;;13.10;100.00
55070;BME280;40967;52.070;8.596;2023-05-10T06:27:10;99794.13;;;13.12;100.00
55070;BME280;40967;52.070;8.596;2023-05-10T06:29:35;99793.03;;;13.13;100.00
55070;BME280;40967;52.070;8.596;2023-05-10T06:32:01;99808.44;;;13.17;100.00
55070;BME280;40967;52.070;8.596;2023-05-10T06:34:26;99797.53;;;13.17;100.00
55070;BME280;40967;52.070;8.596;2023-05-10T06:36:52;99805.22;;;13.29;100.00
55070;BME280;40967;52.070;8.596;2023-05-10T06:39:17;99817.31;;;13.36;100.00
55070;BME280;40967;52.070;8.596;2023-05-10T06:41:43;99811.28;;;13.39;100.00
55070;BME280;40967;52.070;8.596;2023-05-10T06:44:08;99809.84;;;13.42;100.00
55070;BME280;40967;52.070;8.596;2023-05-10T06:46:34;99818.31;;;13.40;100.00
55070;BME280;40967;52.070;8.596;2023-05-10T06:49:00;99819.03;;;13.32;100.00
55070;BME280;40967;52.070;8.596;2023-05-10T06:51:25;99823.16;;;13.30;100.00
55070;BME280;40967;52.070;8.596;2023-05-10T06:53:51;99823.38;;;13.33;100.00
55070;BME280;40967;52.070;8.596;2023-05-10T06:56:16;99823.78;;;13.40;100.00
55070;BME280;40967;52.070;8.596;2023-05-10T06:58:42;99833.47;;;13.46;100.00
55070;BME280;40967;52.070;8.596;2023-05-10T07:01:07;99832.03;;;13.49;100.00
55070;BME280;40967;52.070;8.596;2023-05-10T07:03:33;99831.41;;;13.52;100.00
55070;BME280;40967;52.070;8.596;2023-05-10T07:06:02;99835.88;;;13.48;100.00
55070;BME280;40967;52.070;8.596;2023-05-10T07:08:35;99839.69;;;13.47;100.00
55070;BME280;40967;52.070;8.596;2023-05-10T07:11:05;99839.91;;;13.50;100.00
55070;BME280;40967;52.070;8.596;2023-05-10T07:13:32;99835.97;;;13.56;100.00
55070;BME280;40967;52.070;8.596;2023-05-10T07:15:59;99843.91;;;13.66;100.00
55070;BME280;40967;52.070;8.596;2023-05-10T07:18:25;99845.53;;;13.67;100.00
55070;BME280;40967;52.070;8.596;2023-05-10T07:20:51;99852.59;;;13.68;100.00
55070;BME280;40967;52.070;8.596;2023-05-10T07:23:16;99850.97;;;13.67;100.00
55070;BME280;40967;52.070;8.596;2023-05-10T07:25:49;99846.88;;;13.56;100.00
55070;BME280;40967;52.070;8.596;2023-05-10T07:28:15;99847.19;;;13.55;100.00
55070;BME280;40967;52.070;8.596;2023-05-10T07:30:42;99855.34;;;13.55;100.00
55070;BME280;40967;52.070;8.596;2023-05-10T07:33:08;99844.72;;;13.53;100.00
55070;BME280;40967;52.070;8.596;2023-05-10T07:35:35;99848.34;;;13.62;100.00
55070;BME280;40967;52.070;8.596;2023-05-10T07:38:01;99854.09;;;13.75;100.00
55070;BME280;40967;52.070;8.596;2023-05-10T07:40:27;99860.13;;;13.85;100.00
55070;BME280;40967;52.070;8.596;2023-05-10T07:42:53;99865.19;;;13.92;100.00
55070;BME280;40967;52.070;8.596;2023-05-10T07:45:18;99852.34;;;13.92;100.00
55070;BME280;40967;52.070;8.596;2023-05-10T07:47:43;99864.44;;;14.00;100.00
55070;BME280;40967;52.070;8.596;2023-05-10T07:50:09;99867.16;;;14.00;100.00
55070;BME280;40967;52.070;8.596;2023-05-10T07:52:34;99863.00;;;14.02;100.00
55070;BME280;40967;52.070;8.596;2023-05-10T07:55:00;99860.47;;;14.06;100.00
55070;BME280;40967;52.070;8.596;2023-05-10T07:57:25;99863.81;;;14.03;100.00
55070;BME280;40967;52.070;8.596;2023-05-10T07:59:51;99870.41;;;14.02;100.00
55070;BME280;40967;52.070;8.596;2023-05-10T08:02:16;99873.13;;;14.02;100.00
55070;BME280;40967;52.070;8.596;2023-05-10T08:04:42;99865.03;;;14.10;100.00
55070;BME280;40967;52.070;8.596;2023-05-10T08:07:10;99873.28;;;14.19;100.00
55070;BME280;40967;52.070;8.596;2023-05-10T08:09:36;99865.78;;;14.24;100.00
55070;BME280;40967;52.070;8.596;2023-05-10T08:12:01;99866.97;;;14.32;100.00
55070;BME280;40967;52.070;8.596;2023-05-10T08:14:28;99873.31;;;14.41;100.00
55070;BME280;40967;52.070;8.596;2023-05-10T08:16:54;99881.69;;;14.44;100.00
55070;BME280;40967;52.070;8.596;2023-05-10T08:19:19;99880.88;;;14.44;100.00
55070;BME280;40967;52.070;8.596;2023-05-10T08:21:46;99874.25;;;14.36;100.00
55070;BME280;40967;52.070;8.596;2023-05-10T08:24:12;99887.25;;;14.39;100.00
55070;BME280;40967;52.070;8.596;2023-05-10T08:26:37;99887.94;;;14.45;100.00
55070;BME280;40967;52.070;8.596;2023-05-10T08:29:02;99883.38;;;14.54;100.00
55070;BME280;40967;52.070;8.596;2023-05-10T08:31:28;99885.66;;;14.60;100.00
55070;BME280;40967;52.070;8.596;2023-05-10T08:33:57;99882.44;;;14.58;100.00
55070;BME280;40967;52.070;8.596;2023-05-10T08:36:40;99890.16;;;14.65;100.00
55070;BME280;40967;52.070;8.596;2023-05-10T08:39:06;99889.94;;;14.53;100.00
55070;BME280;40967;52.070;8.596;2023-05-10T08:41:33;99876.03;;;14.41;100.00
55070;BME280;40967;52.070;8.596;2023-05-10T08:44:03;99900.53;;;14.54;100.00
55070;BME280;40967;52.070;8.596;2023-05-10T08:46:29;99895.44;;;14.61;100.00
55070;BME280;40967;52.070;8.596;2023-05-10T08:48:57;99896.56;;;14.82;100.00
55070;BME280;40967;52.070;8.596;2023-05-10T08:51:25;99886.53;;;15.00;100.00
55070;BME280;40967;52.070;8.596;2023-05-10T08:53:52;99893.38;;;15.20;100.00
55070;BME280;40967;52.070;8.596;2023-05-10T08:56:18;99892.03;;;15.39;100.00
55070;BME280;40967;52.070;8.596;2023-05-10T08:58:44;99902.06;;;15.52;100.00
55070;BME280;40967;52.070;8.596;2023-05-10T09:01:11;99907.09;;;15.67;100.00
55070;BME280;40967;52.070;8.596;2023-05-10T09:03:40;99911.44;;;15.68;100.00
55070;BME280;40967;52.070;8.596;2023-05-10T09:06:06;99906.91;;;15.64;100.00
55070;BME280;40967;52.070;8.596;2023-05-10T09:08:32;99903.72;;;15.70;100.00
55070;BME280;40967;52.070;8.596;2023-05-10T09:10:57;99911.28;;;15.73;100.00
55070;BME280;40967;52.070;8.596;2023-05-10T09:13:24;99910.59;;;15.59;100.00
55070;BME280;40967;52.070;8.596;2023-05-10T09:15:50;99910.91;;;15.49;100.00
55070;BME280;40967;52.070;8.596;2023-05-10T09:18:16;99911.28;;;15.34;100.00
55070;BME280;40967;52.070;8.596;2023-05-10T09:20:41;99925.44;;;15.36;100.00
55070;BME280;40967;52.070;8.596;2023-05-10T09:23:07;99922.91;;;15.40;100.00
55070;BME280;40967;52.070;8.596;2023-05-10T09:25:33;99943.44;;;15.29;100.00
55070;BME280;40967;52.070;8.596;2023-05-10T09:30:53;99936.84;;;14.77;100.00
55070;BME280;40967;52.070;8.596;2023-05-10T09:33:18;99939.19;;;14.70;100.00
55070;BME280;40967;52.070;8.596;2023-05-10T09:35:44;99936.78;;;14.68;100.00
55070;BME280;40967;52.070;8.596;2023-05-10T09:38:09;99940.50;;;14.72;100.00
55070;BME280;40967;52.070;8.596;2023-05-10T09:40:35;99939.09;;;14.75;100.00
55070;BME280;40967;52.070;8.596;2023-05-10T09:43:08;99941.00;;;14.74;100.00
55070;BME280;40967;52.070;8.596;2023-05-10T09:45:34;99947.53;;;14.87;100.00
55070;BME280;40967;52.070;8.596;2023-05-10T09:48:01;99950.50;;;14.99;100.00
55070;BME280;40967;52.070;8.596;2023-05-10T09:50:28;99953.16;;;15.13;100.00
55070;BME280;40967;52.070;8.596;2023-05-10T09:52:59;99952.88;;;15.23;100.00
55070;BME280;40967;52.070;8.596;2023-05-10T09:55:41;99953.41;;;15.33;100.00
55070;BME280;40967;52.070;8.596;2023-05-10T09:58:09;99949.38;;;15.31;100.00
55070;BME280;40967;52.070;8.596;2023-05-10T10:00:45;99941.72;;;15.41;100.00
55070;BME280;40967;52.070;8.596;2023-05-10T10:03:18;99951.00;;;15.62;100.00
55070;BME280;40967;52.070;8.596;2023-05-10T10:05:44;99943.50;;;15.85;100.00
55070;BME280;40967;52.070;8.596;2023-05-10T10:08:11;99942.59;;;16.15;100.00
55070;BME280;40967;52.070;8.596;2023-05-10T10:10:37;99941.66;;;16.45;100.00
55070;BME280;40967;52.070;8.596;2023-05-10T10:13:03;99946.00;;;16.80;100.00
55070;BME280;40967;52.070;8.596;2023-05-10T10:15:30;99946.28;;;17.13;100.00
55070;BME280;40967;52.070;8.596;2023-05-10T10:17:55;99939.09;;;17.38;100.00
55070;BME280;40967;52.070;8.596;2023-05-10T10:20:22;99946.72;;;17.32;98.32
55070;BME280;40967;52.070;8.596;2023-05-10T10:22:49;99950.47;;;17.19;96.50
55070;BME280;40967;52.070;8.596;2023-05-10T10:25:17;99937.59;;;17.11;97.59
55070;BME280;40967;52.070;8.596;2023-05-10T10:33:06;99941.34;;;17.44;93.83
55070;BME280;40967;52.070;8.596;2023-05-10T10:35:35;99940.06;;;17.42;92.57
55070;BME280;40967;52.070;8.596;2023-05-10T10:38:01;99934.78;;;17.28;91.75
55070;BME280;40967;52.070;8.596;2023-05-10T10:40:31;99933.81;;;17.24;92.32
55070;BME280;40967;52.070;8.596;2023-05-10T10:42:57;99930.88;;;17.46;92.61
55070;BME280;40967;52.070;8.596;2023-05-10T10:45:24;99927.41;;;17.66;91.42
55070;BME280;40967;52.070;8.596;2023-05-10T10:48:20;99926.53;;;18.03;89.21
55070;BME280;40967;52.070;8.596;2023-05-10T10:50:57;99931.25;;;18.24;86.88
55070;BME280;40967;52.070;8.596;2023-05-10T10:53:26;99929.63;;;18.52;85.72
55070;BME280;40967;52.070;8.596;2023-05-10T10:56:04;99920.78;;;18.79;83.86
55070;BME280;40967;52.070;8.596;2023-05-10T10:58:31;99932.25;;;19.25;83.92
55070;BME280;40967;52.070;8.596;2023-05-10T11:01:16;99933.13;;;19.62;81.26
55070;BME280;40967;52.070;8.596;2023-05-10T11:06:32;99932.66;;;20.33;76.87
55070;BME280;40967;52.070;8.596;2023-05-10T11:08:58;99940.94;;;20.33;73.31
55070;BME280;40967;52.070;8.596;2023-05-10T11:11:23;99929.16;;;20.48;72.40
55070;BME280;40967;52.070;8.596;2023-05-10T11:13:49;99932.38;;;20.50;71.44
55070;BME280;40967;52.070;8.596;2023-05-10T11:16:19;99936.81;;;20.54;70.52
55070;BME280;40967;52.070;8.596;2023-05-10T11:19:12;99935.31;;;20.05;68.85
55070;BME280;40967;52.070;8.596;2023-05-10T11:21:50;99941.97;;;19.68;69.56
55070;BME280;40967;52.070;8.596;2023-05-10T11:24:22;99946.81;;;19.26;69.74
55070;BME280;40967;52.070;8.596;2023-05-10T11:26:50;99941.63;;;19.12;71.20
55070;BME280;40967;52.070;8.596;2023-05-10T11:29:16;99927.88;;;19.12;72.10
55070;BME280;40967;52.070;8.596;2023-05-10T11:31:45;99932.78;;;19.07;71.52
55070;BME280;40967;52.070;8.596;2023-05-10T11:34:22;99941.38;;;19.50;71.27
55070;BME280;40967;52.070;8.596;2023-05-10T11:36:52;99932.69;;;19.72;70.39
55070;BME280;40967;52.070;8.596;2023-05-10T11:39:19;99924.88;;;19.74;69.60
55070;BME280;40967;52.070;8.596;2023-05-10T11:41:48;99930.84;;;19.76;69.66
55070;BME280;40967;52.070;8.596;2023-05-10T11:44:13;99937.97;;;19.89;69.23
55070;BME280;40967;52.070;8.596;2023-05-10T11:46:39;99930.13;;;20.03;69.24
55070;BME280;40967;52.070;8.596;2023-05-10T11:49:07;99934.75;;;20.23;69.04
55070;BME280;40967;52.070;8.596;2023-05-10T11:51:34;99930.25;;;20.71;67.51
55070;BME280;40967;52.070;8.596;2023-05-10T11:54:01;99942.00;;;20.83;66.28
55070;BME280;40967;52.070;8.596;2023-05-10T11:56:32;99939.75;;;20.73;65.83
55070;BME280;40967;52.070;8.596;2023-05-10T11:58:58;99934.03;;;20.94;64.38
55070;BME280;40967;52.070;8.596;2023-05-10T12:01:25;99933.13;;;21.17;63.35
55070;BME280;40967;52.070;8.596;2023-05-10T12:03:52;99947.13;;;21.40;61.43
55070;BME280;40967;52.070;8.596;2023-05-10T12:06:19;99950.72;;;21.40;61.07
55070;BME280;40967;52.070;8.596;2023-05-10T12:08:46;99951.75;;;21.36;61.22
55070;BME280;40967;52.070;8.596;2023-05-10T12:11:12;99954.72;;;21.00;61.19
55070;BME280;40967;52.070;8.596;2023-05-10T12:13:43;99955.25;;;20.78;62.09
55070;BME280;40967;52.070;8.596;2023-05-10T12:16:28;99962.50;;;20.70;62.71
55070;BME280;40967;52.070;8.596;2023-05-10T12:18:56;99960.22;;;20.72;62.75
55070;BME280;40967;52.070;8.596;2023-05-10T12:21:21;99961.91;;;20.77;62.09
55070;BME280;40967;52.070;8.596;2023-05-10T12:23:50;99966.78;;;20.56;62.26
55070;BME280;40967;52.070;8.596;2023-05-10T12:26:16;99972.59;;;20.39;63.37
55070;BME280;40967;52.070;8.596;2023-05-10T12:28:42;99973.41;;;20.27;63.54
55070;BME280;40967;52.070;8.596;2023-05-10T12:31:08;99979.38;;;20.05;63.42
55070;BME280;40967;52.070;8.596;2023-05-10T12:33:38;99974.91;;;19.76;62.76
55070;BME280;40967;52.070;8.596;2023-05-10T12:36:04;99981.28;;;19.44;63.04
55070;BME280;40967;52.070;8.596;2023-05-10T12:38:34;99977.00;;;19.35;63.86
55070;BME280;40967;52.070;8.596;2023-05-10T12:41:02;99980.00;;;19.42;63.99
55070;BME280;40967;52.070;8.596;2023-05-10T12:43:29;99980.91;;;19.34;64.67
55070;BME280;40967;52.070;8.596;2023-05-10T12:45:55;99983.72;;;19.25;65.12
55070;BME280;40967;52.070;8.596;2023-05-10T12:48:21;99985.97;;;19.32;65.50
55070;BME280;40967;52.070;8.596;2023-05-10T12:50:46;99984.56;;;19.38;65.49
55070;BME280;40967;52.070;8.596;2023-05-10T12:53:13;99979.56;;;19.52;65.20
55070;BME280;40967;52.070;8.596;2023-05-10T12:55:41;99986.59;;;19.61;65.25
55070;BME280;40967;52.070;8.596;2023-05-10T12:58:06;99992.44;;;19.60;67.09
55070;BME280;40967;52.070;8.596;2023-05-10T13:00:32;99979.81;;;19.59;69.05
55070;BME280;40967;52.070;8.596;2023-05-10T13:02:57;99981.19;;;19.65;70.14
55070;BME280;40967;52.070;8.596;2023-05-10T13:05:23;99987.72;;;19.72;70.92
55070;BME280;40967;52.070;8.596;2023-05-10T13:07:48;99992.47;;;19.84;71.15
55070;BME280;40967;52.070;8.596;2023-05-10T13:10:14;99993.47;;;20.03;71.04
55070;BME280;40967;52.070;8.596;2023-05-10T13:12:39;99991.41;;;20.12;71.26
55070;BME280;40967;52.070;8.596;2023-05-10T13:15:05;99997.88;;;20.28;71.62
55070;BME280;40967;52.070;8.596;2023-05-10T13:17:31;99997.94;;;20.44;70.54